createdAt,value
2018-09-04T00:00:35.896Z,35.80
2018-09-04T00:03:03.959Z,39.70
2018-09-04T00:05:31.996Z,39.33
2018-09-04T00:08:00.054Z,39.53
2018-09-04T00:10:28.124Z,37.35
2018-09-04T00:12:56.190Z,32.80
2018-09-04T00:15:24.336Z,31.45
2018-09-04T00:17:52.567Z,36.60
2018-09-04T00:20:20.639Z,36.28
2018-09-04T00:22:48.737Z,37.65
2018-09-04T00:25:16.792Z,34.78
2018-09-04T00:27:44.881Z,37.13
2018-09-04T00:30:12.945Z,35.13
2018-09-04T00:32:41.022Z,38.60
2018-09-04T00:35:09.071Z,43.42
2018-09-04T00:37:37.152Z,42.43
2018-09-04T00:40:05.989Z,38.85
2018-09-04T00:42:34.300Z,36.45
2018-09-04T00:45:02.443Z,38.70
2018-09-04T00:47:30.563Z,40.70
2018-09-04T00:49:58.663Z,40.55
2018-09-04T00:52:26.753Z,36.98
2018-09-04T00:54:54.832Z,35.55
2018-09-04T00:57:22.923Z,33.85
2018-09-04T00:59:50.999Z,39.00
2018-09-04T01:02:19.083Z,44.53
2018-09-04T01:04:48.081Z,46.53
2018-09-04T01:07:16.555Z,45.43
2018-09-04T01:09:44.631Z,47.98
2018-09-04T01:12:12.680Z,45.58
2018-09-04T01:14:40.752Z,47.43
2018-09-04T01:17:08.835Z,49.53
2018-09-04T01:19:36.895Z,44.88
2018-09-04T01:22:05.168Z,41.28
2018-09-04T01:24:33.247Z,38.75
2018-09-04T01:27:01.315Z,40.95
2018-09-04T01:29:29.445Z,39.10
2018-09-04T01:31:57.521Z,40.15
2018-09-04T01:34:25.619Z,42.13
2018-09-04T01:36:53.785Z,40.58
2018-09-04T01:39:21.865Z,42.75
2018-09-04T01:41:49.928Z,44.03
2018-09-04T01:44:17.980Z,42.90
2018-09-04T01:46:46.051Z,45.33
2018-09-04T01:49:14.148Z,42.95
2018-09-04T01:51:42.191Z,50.63
2018-09-04T01:54:10.270Z,49.65
2018-09-04T01:56:38.340Z,45.52
2018-09-04T01:59:06.408Z,44.65
2018-09-04T02:01:35.041Z,49.65
2018-09-04T02:04:03.101Z,44.80
2018-09-04T02:06:31.180Z,42.17
2018-09-04T02:08:59.241Z,43.87
2018-09-04T02:11:27.329Z,41.98
2018-09-04T02:13:55.430Z,41.85
2018-09-04T02:16:23.523Z,49.35
2018-09-04T02:18:51.631Z,41.50
2018-09-04T02:21:19.746Z,42.85
2018-09-04T02:23:48.086Z,46.00
2018-09-04T02:26:16.153Z,49.40
2018-09-04T02:28:44.276Z,45.50
2018-09-04T02:31:12.311Z,44.18
2018-09-04T02:33:40.432Z,42.80
2018-09-04T02:36:08.498Z,47.05
2018-09-04T02:38:36.590Z,46.55
2018-09-04T02:41:05.038Z,45.25
2018-09-04T02:43:33.246Z,50.73
2018-09-04T02:46:01.389Z,44.67
2018-09-04T02:48:29.427Z,45.17
2018-09-04T02:50:57.480Z,48.65
2018-09-04T02:53:25.519Z,46.63
2018-09-04T02:55:53.629Z,46.58
2018-09-04T02:58:21.720Z,47.08
2018-09-04T03:00:49.791Z,45.48
2018-09-04T03:03:17.834Z,44.45
2018-09-04T03:05:45.883Z,44.67
2018-09-04T03:08:13.931Z,45.70
2018-09-04T03:10:42.044Z,45.15
2018-09-04T03:13:10.102Z,51.15
2018-09-04T03:15:38.163Z,52.17
2018-09-04T03:18:06.216Z,46.80
2018-09-04T03:20:34.267Z,50.28
2018-09-04T03:23:02.354Z,46.77
2018-09-04T03:25:30.393Z,46.42
2018-09-04T03:27:58.497Z,43.33
2018-09-04T03:30:26.555Z,45.38
2018-09-04T03:32:54.587Z,47.90
2018-09-04T03:35:22.664Z,44.60
2018-09-04T03:37:50.734Z,48.87
2018-09-04T03:40:18.784Z,52.00
2018-09-04T03:42:46.880Z,54.98
2018-09-04T03:45:14.939Z,52.78
2018-09-04T03:47:43.013Z,50.40
2018-09-04T03:50:11.056Z,50.33
2018-09-04T03:52:39.110Z,49.55
2018-09-04T03:55:07.213Z,47.38
2018-09-04T03:57:35.273Z,43.73
2018-09-04T04:00:03.345Z,48.08
2018-09-04T04:02:31.387Z,45.15
2018-09-04T04:04:59.460Z,44.50
2018-09-04T04:07:27.531Z,50.73
2018-09-04T04:09:55.588Z,47.20
2018-09-04T04:12:23.619Z,47.55
2018-09-04T04:14:51.694Z,46.42
2018-09-04T04:17:19.740Z,44.65
2018-09-04T04:19:47.839Z,45.23
2018-09-04T04:22:15.912Z,48.73
2018-09-04T04:24:43.969Z,45.45
2018-09-04T04:27:12.048Z,46.15
2018-09-04T04:29:40.125Z,48.75
2018-09-04T04:32:08.192Z,46.95
2018-09-04T04:34:36.309Z,43.20
2018-09-04T04:37:04.406Z,46.77
2018-09-04T04:39:32.469Z,47.40
2018-09-04T04:42:00.535Z,49.73
2018-09-04T04:44:28.584Z,48.20
2018-09-04T04:46:56.643Z,45.35
2018-09-04T04:49:24.689Z,46.00
2018-09-04T04:51:52.766Z,42.20
2018-09-04T04:54:20.827Z,46.08
2018-09-04T04:56:48.917Z,43.70
2018-09-04T04:59:17.065Z,40.43
2018-09-04T05:01:45.112Z,47.27
2018-09-04T05:04:13.164Z,50.70
2018-09-04T05:06:41.235Z,51.10
2018-09-04T05:09:10.263Z,46.80
2018-09-04T05:11:39.762Z,46.98
2018-09-04T05:14:08.153Z,45.30
2018-09-04T05:16:36.219Z,42.08
2018-09-04T05:19:04.313Z,45.58
2018-09-04T05:21:32.464Z,47.23
2018-09-04T05:24:00.531Z,42.00
2018-09-04T05:26:28.643Z,42.23
2018-09-04T05:28:56.744Z,47.90
2018-09-04T05:31:24.876Z,47.58
2018-09-04T05:33:52.956Z,47.93
2018-09-04T05:36:21.072Z,48.90
2018-09-04T05:38:49.172Z,46.18
2018-09-04T05:41:17.324Z,43.92
2018-09-04T05:43:52.398Z,45.33
2018-09-04T05:46:27.022Z,45.45
2018-09-04T05:48:56.127Z,46.37
2018-09-04T05:51:24.201Z,45.65
2018-09-04T05:53:52.323Z,45.95
2018-09-04T05:56:20.464Z,45.35
2018-09-04T05:58:48.592Z,44.88
2018-09-04T06:01:17.441Z,51.50
2018-09-04T06:03:45.512Z,51.25
2018-09-04T06:06:13.575Z,49.95
2018-09-04T06:08:41.652Z,50.10
2018-09-04T06:11:09.721Z,47.35
2018-09-04T06:13:37.797Z,48.10
2018-09-04T06:16:05.954Z,50.20
2018-09-04T06:18:34.039Z,52.25
2018-09-04T06:21:02.102Z,48.70
2018-09-04T06:23:30.183Z,48.20
2018-09-04T06:25:58.264Z,47.03
2018-09-04T06:28:26.373Z,46.83
2018-09-04T06:30:54.452Z,47.88
2018-09-04T06:33:22.551Z,44.70
2018-09-04T06:35:50.618Z,50.55
2018-09-04T06:38:18.814Z,48.70
2018-09-04T06:40:46.894Z,44.73
2018-09-04T06:43:14.966Z,50.23
2018-09-04T06:45:43.075Z,48.75
2018-09-04T06:48:11.179Z,49.38
2018-09-04T06:50:39.250Z,48.30
2018-09-04T06:53:07.354Z,53.58
2018-09-04T06:55:35.473Z,51.10
2018-09-04T06:58:03.554Z,52.20
2018-09-04T07:00:31.607Z,51.85
2018-09-04T07:02:59.710Z,51.95
2018-09-04T07:05:27.768Z,49.90
2018-09-04T07:07:55.835Z,48.95
2018-09-04T07:10:23.900Z,47.50
2018-09-04T07:12:52.006Z,46.18
2018-09-04T07:15:20.062Z,46.35
2018-09-04T07:17:48.141Z,46.30
2018-09-04T07:20:16.476Z,48.55
2018-09-04T07:22:44.580Z,50.70
2018-09-04T07:25:12.641Z,46.88
2018-09-04T07:27:40.713Z,48.42
2018-09-04T07:30:08.813Z,48.15
2018-09-04T07:32:36.908Z,52.20
2018-09-04T07:35:04.989Z,50.70
2018-09-04T07:37:34.190Z,51.77
2018-09-04T07:40:02.898Z,51.20
2018-09-04T07:42:31.688Z,45.78
2018-09-04T07:45:02.101Z,49.65
2018-09-04T07:47:30.228Z,45.73
2018-09-04T07:49:58.357Z,48.52
2018-09-04T07:52:28.396Z,47.80
2018-09-04T07:54:59.414Z,46.58
2018-09-04T07:57:28.775Z,42.90
2018-09-04T07:59:58.416Z,44.83
2018-09-04T08:02:27.362Z,42.05
2018-09-04T08:04:56.426Z,41.35
2018-09-04T08:07:25.124Z,41.37
2018-09-04T08:09:53.962Z,49.83
2018-09-04T08:12:22.892Z,44.23
2018-09-04T08:14:53.860Z,45.63
2018-09-04T08:17:22.771Z,48.92
2018-09-04T08:19:51.494Z,48.40
2018-09-04T08:22:20.300Z,45.95
2018-09-04T08:24:51.400Z,45.05
2018-09-04T08:27:21.836Z,47.93
2018-09-04T08:29:50.609Z,46.85
2018-09-04T08:32:19.926Z,46.58
2018-09-04T08:34:49.323Z,46.23
2018-09-04T08:37:18.213Z,45.30
2018-09-04T08:39:46.986Z,45.17
2018-09-04T08:42:17.533Z,44.15
2018-09-04T08:44:46.129Z,39.92
2018-09-04T08:47:14.794Z,37.85
2018-09-04T08:49:42.831Z,37.20
2018-09-04T08:52:11.719Z,42.43
2018-09-04T08:54:42.131Z,40.95
2018-09-04T08:57:11.104Z,35.70
2018-09-04T08:59:40.181Z,38.05
2018-09-04T09:02:08.942Z,33.60
2018-09-04T09:04:37.450Z,31.50
2018-09-04T09:07:06.615Z,27.73
2018-09-04T09:09:35.680Z,26.10
2018-09-04T09:12:05.506Z,26.17
2018-09-04T09:14:34.848Z,32.23
2018-09-04T09:17:04.175Z,28.27
2018-09-04T09:19:33.129Z,31.30
2018-09-04T09:22:01.690Z,28.12
2018-09-04T09:24:30.502Z,29.15
2018-09-04T09:26:59.176Z,27.75
2018-09-04T09:29:30.364Z,27.95
2018-09-04T09:31:58.711Z,25.92
2018-09-04T09:34:27.998Z,26.42
2018-09-04T09:36:57.844Z,26.50
2018-09-04T09:39:26.932Z,28.23
2018-09-04T09:41:56.042Z,25.88
2018-09-04T09:44:24.624Z,25.08
2018-09-04T09:46:58.358Z,28.10
2018-09-04T09:49:27.100Z,30.08
2018-09-04T09:51:56.143Z,28.02
2018-09-04T09:54:26.006Z,30.75
2018-09-04T09:56:54.654Z,31.20
2018-09-04T09:59:22.834Z,29.63
2018-09-04T10:01:59.614Z,28.47
2018-09-04T10:04:28.339Z,29.72
2018-09-04T10:06:57.705Z,25.48
2018-09-04T10:09:26.795Z,28.47
2018-09-04T10:11:55.695Z,28.30
2018-09-04T10:14:28.059Z,22.70
2018-09-04T10:16:56.602Z,24.02
2018-09-04T10:19:27.142Z,23.07
2018-09-04T10:21:57.519Z,22.37
2018-09-04T10:27:08.061Z,20.52
2018-09-04T10:29:37.548Z,23.07
2018-09-04T10:32:08.569Z,22.52
2018-09-04T10:34:36.914Z,22.48
2018-09-04T10:37:06.055Z,23.27
2018-09-04T10:39:39.710Z,24.80
2018-09-04T10:42:08.402Z,22.95
2018-09-04T10:44:37.079Z,23.10
2018-09-04T10:47:05.800Z,22.67
2018-09-04T10:49:34.530Z,26.02
2018-09-04T10:52:02.636Z,25.65
2018-09-04T10:54:31.595Z,24.95
2018-09-04T10:56:59.681Z,31.00
2018-09-04T10:59:27.799Z,26.12
2018-09-04T11:01:55.880Z,28.00
2018-09-04T11:04:23.989Z,27.65
2018-09-04T11:06:52.175Z,28.70
2018-09-04T11:09:20.408Z,33.33
2018-09-04T11:11:48.477Z,28.57
2018-09-04T11:14:16.761Z,27.17
2018-09-04T11:16:44.869Z,28.57
2018-09-04T11:19:12.957Z,24.75
2018-09-04T11:21:41.148Z,27.67
2018-09-04T11:24:09.267Z,24.85
2018-09-04T11:26:37.454Z,26.37
2018-09-04T11:29:07.494Z,24.92
2018-09-04T11:31:35.772Z,26.65
2018-09-04T11:34:03.920Z,25.25
2018-09-04T11:36:32.093Z,24.60
2018-09-04T11:39:00.198Z,23.90
2018-09-04T11:41:28.320Z,22.73
2018-09-04T11:43:56.455Z,23.00
2018-09-04T11:46:24.621Z,23.18
2018-09-04T11:48:52.768Z,26.97
2018-09-04T11:51:21.025Z,23.67
2018-09-04T11:53:49.223Z,22.42
2018-09-04T11:56:20.541Z,22.00
2018-09-04T11:58:53.511Z,20.62
2018-09-04T12:01:25.967Z,21.23
2018-09-04T12:03:59.877Z,20.90
2018-09-04T12:06:30.087Z,17.52
2018-09-04T12:08:59.912Z,17.37
2018-09-04T12:11:28.103Z,17.48
2018-09-04T12:13:56.257Z,15.58
2018-09-04T12:16:24.649Z,17.05
2018-09-04T12:18:53.339Z,17.30
2018-09-04T12:21:23.332Z,15.75
2018-09-04T12:23:53.398Z,14.80
2018-09-04T12:26:22.541Z,15.30
2018-09-04T12:28:52.666Z,14.13
2018-09-04T12:31:20.781Z,15.13
2018-09-04T12:33:49.316Z,15.08
2018-09-04T12:36:19.631Z,15.90
2018-09-04T12:38:47.741Z,15.43
2018-09-04T12:41:19.875Z,15.95
2018-09-04T12:43:51.418Z,13.10
2018-09-04T12:46:19.975Z,14.15
2018-09-04T12:48:50.664Z,12.28
2018-09-04T12:51:19.734Z,12.47
2018-09-04T12:53:48.622Z,14.18
2018-09-04T12:56:16.979Z,12.95
2018-09-04T12:58:45.365Z,12.98
2018-09-04T13:01:13.448Z,13.75
2018-09-04T13:06:34.488Z,11.33
2018-09-04T13:09:04.801Z,10.58
2018-09-04T13:11:38.120Z,10.70
2018-09-04T13:14:07.529Z,11.08
2018-09-04T13:16:41.234Z,10.93
2018-09-04T13:19:13.305Z,10.80
2018-09-04T13:21:41.420Z,11.05
2018-09-04T13:24:09.507Z,12.53
2018-09-04T13:26:37.616Z,12.55
2018-09-04T13:29:06.006Z,12.65
2018-09-04T13:31:34.082Z,12.50
2018-09-04T13:34:02.267Z,12.28
2018-09-04T13:36:30.383Z,12.93
2018-09-04T13:38:58.478Z,12.50
2018-09-04T13:41:30.716Z,12.37
2018-09-04T13:43:58.792Z,12.23
2018-09-04T13:46:26.879Z,11.40
2018-09-04T13:48:55.068Z,11.80
2018-09-04T13:54:42.444Z,11.48
2018-09-04T13:57:11.896Z,11.68
2018-09-04T13:59:41.935Z,11.97
2018-09-04T14:02:10.673Z,11.12
2018-09-04T14:04:41.909Z,10.50
2018-09-04T14:07:10.009Z,11.85
2018-09-04T14:09:39.550Z,11.20
2018-09-04T14:12:13.699Z,11.45
2018-09-04T14:14:42.407Z,10.90
2018-09-04T14:17:16.377Z,11.00
2018-09-04T14:19:46.209Z,11.20
2018-09-04T14:22:14.728Z,10.63
2018-09-04T14:24:42.855Z,10.00
2018-09-04T14:27:10.963Z,9.73
2018-09-04T14:30:15.402Z,10.13
2018-09-04T14:32:13.825Z,11.03
2018-09-04T14:34:42.000Z,11.95
2018-09-04T14:37:10.204Z,11.97
2018-09-04T14:39:38.261Z,11.20
2018-09-04T14:42:06.426Z,11.12
2018-09-04T14:44:34.548Z,10.98
2018-09-04T14:47:02.769Z,11.95
2018-09-04T14:49:30.935Z,11.38
2018-09-04T14:51:59.039Z,10.13
2018-09-04T14:54:27.120Z,10.43
2018-09-04T14:56:55.300Z,10.75
2018-09-04T14:59:23.464Z,10.50
2018-09-04T15:01:51.625Z,10.25
2018-09-04T15:04:19.755Z,10.13
2018-09-04T15:06:47.864Z,9.65
2018-09-04T15:09:15.951Z,9.93
2018-09-04T15:11:44.089Z,9.88
2018-09-04T15:14:12.183Z,10.50
2018-09-04T15:16:40.349Z,10.75
2018-09-04T15:19:08.411Z,9.60
2018-09-04T15:21:36.516Z,10.55
2018-09-04T15:24:04.607Z,9.03
2018-09-04T15:26:32.727Z,9.45
2018-09-04T15:29:00.827Z,9.68
2018-09-04T15:31:28.957Z,10.13
2018-09-04T15:33:57.057Z,9.80
2018-09-04T15:36:25.241Z,10.23
2018-09-04T15:38:53.345Z,10.23
2018-09-04T15:41:21.425Z,10.45
2018-09-04T15:43:49.516Z,10.78
2018-09-04T15:46:17.587Z,9.98
2018-09-04T15:48:48.223Z,9.78
2018-09-04T15:51:16.334Z,10.00
2018-09-04T15:53:44.492Z,10.82
2018-09-04T15:56:12.551Z,10.25
2018-09-04T15:58:40.633Z,9.85
2018-09-04T16:01:08.706Z,9.85
2018-09-04T16:03:36.804Z,9.60
2018-09-04T16:06:04.914Z,9.63
2018-09-04T16:08:33.138Z,9.75
2018-09-04T16:11:01.248Z,10.28
2018-09-04T16:13:29.376Z,10.20
2018-09-04T16:15:57.442Z,10.40
2018-09-04T16:18:25.546Z,9.95
2018-09-04T16:20:53.829Z,10.20
2018-09-04T16:23:22.031Z,10.72
2018-09-04T16:25:50.213Z,9.45
2018-09-04T16:28:18.295Z,10.30
2018-09-04T16:30:46.434Z,10.10
2018-09-04T16:33:14.519Z,10.43
2018-09-04T16:35:42.651Z,9.90
2018-09-04T16:38:10.769Z,9.88
2018-09-04T16:40:38.828Z,9.33
2018-09-04T16:43:06.959Z,10.20
2018-09-04T16:45:35.092Z,10.20
2018-09-04T16:48:03.204Z,10.38
2018-09-04T16:50:31.297Z,10.40
2018-09-04T16:52:59.368Z,10.35
2018-09-04T16:55:27.500Z,10.75
2018-09-04T16:57:55.991Z,9.83
2018-09-04T17:00:24.088Z,10.13
2018-09-04T17:02:52.395Z,10.28
2018-09-04T17:05:20.732Z,11.28
2018-09-04T17:07:49.012Z,10.00
2018-09-04T17:10:17.168Z,10.63
2018-09-04T17:12:45.461Z,10.40
2018-09-04T17:15:13.547Z,10.80
2018-09-04T17:17:41.652Z,11.57
2018-09-04T17:20:09.758Z,10.58
2018-09-04T17:22:37.832Z,10.45
2018-09-04T17:25:06.335Z,11.00
2018-09-04T17:27:34.467Z,10.58
2018-09-04T17:30:03.407Z,11.15
2018-09-04T17:32:31.564Z,10.78
2018-09-04T17:34:59.714Z,11.05
2018-09-04T17:37:27.886Z,10.35
2018-09-04T17:39:56.820Z,10.38
2018-09-04T17:42:25.115Z,10.43
2018-09-04T17:44:53.293Z,10.93
2018-09-04T17:47:24.207Z,11.22
2018-09-04T17:49:53.316Z,10.85
2018-09-04T17:52:21.404Z,10.20
2018-09-04T17:54:49.490Z,11.60
2018-09-04T17:57:17.588Z,11.12
2018-09-04T17:59:45.748Z,12.40
2018-09-04T18:02:13.855Z,11.75
2018-09-04T18:04:41.955Z,11.70
2018-09-04T18:07:10.249Z,11.70
2018-09-04T18:09:38.761Z,11.88
2018-09-04T18:12:06.996Z,12.47
2018-09-04T18:14:35.024Z,11.88
2018-09-04T18:17:03.107Z,12.13
2018-09-04T18:19:31.243Z,11.55
2018-09-04T18:21:59.428Z,12.00
2018-09-04T18:24:27.677Z,12.15
2018-09-04T18:26:56.002Z,12.93
2018-09-04T18:29:24.087Z,12.23
2018-09-04T18:31:52.259Z,12.73
2018-09-04T18:34:20.601Z,12.25
2018-09-04T18:36:48.792Z,11.70
2018-09-04T18:39:16.943Z,12.00
2018-09-04T18:41:45.015Z,12.05
2018-09-04T18:44:13.212Z,12.37
2018-09-04T18:46:41.342Z,13.28
2018-09-04T18:49:09.530Z,12.80
2018-09-04T18:51:37.916Z,11.68
2018-09-04T18:54:06.256Z,12.35
2018-09-04T18:56:43.940Z,11.57
2018-09-04T18:59:20.144Z,12.20
2018-09-04T19:01:49.321Z,11.50
2018-09-04T19:04:17.592Z,11.53
2018-09-04T19:06:47.023Z,12.18
2018-09-04T19:09:15.727Z,11.75
2018-09-04T19:11:47.939Z,12.50
2018-09-04T19:14:16.904Z,12.28
2018-09-04T19:16:45.251Z,12.00
2018-09-04T19:19:13.544Z,11.48
2018-09-04T19:21:41.700Z,13.85
2018-09-04T19:24:09.899Z,12.28
2018-09-04T19:26:37.975Z,12.58
2018-09-04T19:29:06.383Z,12.33
2018-09-04T19:31:34.503Z,12.33
2018-09-04T19:34:02.992Z,13.22
2018-09-04T19:36:31.445Z,13.48
2018-09-04T19:39:00.304Z,13.88
2018-09-04T19:41:28.379Z,13.10
2018-09-04T19:43:56.451Z,12.55
2018-09-04T19:46:24.545Z,12.25
2018-09-04T19:48:52.644Z,12.00
2018-09-04T19:51:20.818Z,12.47
2018-09-04T19:53:49.128Z,11.65
2018-09-04T19:56:17.188Z,11.90
2018-09-04T19:58:45.269Z,12.00
2018-09-04T20:01:13.785Z,11.73
2018-09-04T20:03:41.966Z,12.23
2018-09-04T20:06:10.664Z,11.22
2018-09-04T20:08:38.787Z,11.70
2018-09-04T20:11:07.371Z,11.63
2018-09-04T20:13:35.514Z,11.80
2018-09-04T20:16:04.533Z,11.75
2018-09-04T20:18:32.685Z,11.18
2018-09-04T20:21:00.857Z,11.70
2018-09-04T20:23:28.941Z,12.47
2018-09-04T20:25:57.022Z,12.78
2018-09-04T20:28:25.106Z,13.80
2018-09-04T20:30:59.552Z,12.75
2018-09-04T20:33:27.685Z,11.22
2018-09-04T20:35:55.791Z,11.88
2018-09-04T20:38:23.871Z,10.65
2018-09-04T20:40:51.987Z,12.43
2018-09-04T20:43:20.088Z,11.57
2018-09-04T20:45:48.246Z,13.22
2018-09-04T20:48:16.343Z,13.85
2018-09-04T20:50:44.431Z,12.73
2018-09-04T20:53:14.386Z,12.23
2018-09-04T20:55:49.228Z,13.05
2018-09-04T20:58:28.644Z,12.90
2018-09-04T21:01:08.180Z,14.85
2018-09-04T21:03:47.671Z,15.03
2018-09-04T21:06:27.175Z,15.05
2018-09-04T21:09:02.423Z,14.40
2018-09-04T21:11:30.704Z,13.93
2018-09-04T21:13:59.385Z,12.93
2018-09-04T21:16:27.474Z,11.88
2018-09-04T21:18:55.594Z,16.42
2018-09-04T21:21:23.684Z,13.50
2018-09-04T21:23:51.811Z,13.45
2018-09-04T21:26:20.006Z,13.20
2018-09-04T21:28:48.413Z,13.58
2018-09-04T21:31:17.553Z,13.53
2018-09-04T21:33:45.620Z,14.20
2018-09-04T21:36:13.723Z,13.68
2018-09-04T21:38:41.840Z,13.55
2018-09-04T21:41:09.935Z,13.62
2018-09-04T21:43:38.006Z,12.82
2018-09-04T21:46:06.539Z,13.08
2018-09-04T21:48:34.631Z,12.95
2018-09-04T21:51:02.700Z,12.75
2018-09-04T21:53:30.823Z,12.78
2018-09-04T21:55:58.911Z,13.70
2018-09-04T21:58:26.982Z,14.05
2018-09-04T22:00:55.562Z,14.87
2018-09-04T22:03:25.013Z,14.05
2018-09-04T22:05:53.438Z,14.20
2018-09-04T22:08:22.027Z,13.08
2018-09-04T22:10:50.124Z,13.45
2018-09-04T22:13:18.285Z,12.13
2018-09-04T22:15:46.327Z,13.30
2018-09-04T22:18:14.430Z,13.53
2018-09-04T22:20:42.534Z,12.98
2018-09-04T22:23:10.637Z,12.80
2018-09-04T22:25:38.728Z,13.43
2018-09-04T22:28:06.821Z,13.60
2018-09-04T22:30:34.905Z,14.15
2018-09-04T22:33:02.965Z,14.25
2018-09-04T22:35:31.030Z,14.28
2018-09-04T22:38:00.279Z,15.18
2018-09-04T22:40:28.355Z,13.90
2018-09-04T22:42:56.400Z,14.70
2018-09-04T22:45:24.527Z,15.65
2018-09-04T22:47:52.636Z,16.35
2018-09-04T22:50:26.245Z,15.72
2018-09-04T22:52:54.336Z,15.95
2018-09-04T22:55:22.438Z,14.85
2018-09-04T22:57:50.500Z,15.35
2018-09-04T23:00:18.572Z,15.58
2018-09-04T23:02:46.620Z,16.17
2018-09-04T23:05:14.701Z,16.80
2018-09-04T23:07:42.785Z,16.93
2018-09-04T23:10:10.939Z,16.77
2018-09-04T23:12:39.010Z,16.30
2018-09-04T23:15:07.305Z,16.10
2018-09-04T23:17:35.367Z,15.90
2018-09-04T23:20:03.455Z,17.32
2018-09-04T23:22:31.558Z,14.63
2018-09-04T23:24:59.727Z,16.12
2018-09-04T23:27:27.828Z,15.18
2018-09-04T23:29:55.912Z,16.50
2018-09-04T23:32:24.075Z,16.02
2018-09-04T23:34:52.215Z,15.50
2018-09-04T23:37:20.332Z,15.08
2018-09-04T23:39:49.040Z,14.43
2018-09-04T23:42:17.090Z,14.90
2018-09-04T23:44:45.124Z,14.87
2018-09-04T23:47:13.206Z,14.98
2018-09-04T23:49:41.274Z,16.62
2018-09-04T23:52:09.336Z,15.05
2018-09-04T23:54:37.419Z,15.98
2018-09-04T23:57:05.740Z,15.10
2018-09-04T23:59:33.806Z,16.57
